Terminal Aerodrome Forecast
Issued by NWS

Home | Current Version | Previous Version | Text Only | Print | Product List | Glossary On
Versions: 1 2 3 4 5 6 7 8 9 10 11 12
433
FTUS45 KRIW 192323
TAFBPI
TAF
KBPI 192323Z 2000/2024 19010KT P6SM SCT250
     FM200030 VRB06KT P6SM SCT250
     FM200600 VRB05KT P6SM SCT080 WS010/23030KT
     FM201700 20014G24KT P6SM FEW100
     FM201900 23016G25KT P6SM SCT250
     FM202100 28018G27KT P6SM VCSH BKN100 BKN200=

USA.gov is the U.S. government's official web portal to all federal, state and local government web resources and services.